Time;durP1;ratioP1;P1;durP2;ratioP2;P2;SDS_P1;SDS_P2;PMS_P1;PMS_P2;Temp;Humidity;BMP_temperature;BMP_pressure;BME280_temperature;BME280_humidity;BME280_pressure;Samples;Min_cycle;Max_cycle;Signal;HPM_P1;HPM_P2
2024/01/23 06:02:59;;;;;;;1.93;1.17;;;14.20;90.20;;;;;;5088208;28;20219;-1
2024/01/23 06:05:24;;;;;;;2.87;1.50;;;14.20;90.30;;;;;;5071590;28;20550;0
2024/01/23 06:07:51;;;;;;;5.37;1.80;;;14.20;90.30;;;;;;5088172;28;20173;0
2024/01/23 06:10:17;;;;;;;2.73;1.40;;;14.20;90.30;;;;;;5071221;28;20172;0
2024/01/23 06:12:44;;;;;;;2.77;1.37;;;14.20;90.40;;;;;;5090838;28;20495;0
2024/01/23 06:15:10;;;;;;;4.03;1.60;;;14.10;90.70;;;;;;5088506;28;20165;-1
2024/01/23 06:17:36;;;;;;;3.70;1.70;;;14.10;90.40;;;;;;5089410;28;20174;0
2024/01/23 06:20:04;;;;;;;3.60;1.60;;;14.10;90.40;;;;;;5070573;28;20170;0
2024/01/23 06:22:31;;;;;;;2.23;1.50;;;14.10;90.30;;;;;;5088109;28;20610;0
2024/01/23 06:25:00;;;;;;;3.03;1.30;;;14.10;90.30;;;;;;5071050;28;20451;0
2024/01/23 06:27:26;;;;;;;3.07;1.37;;;14.10;90.30;;;;;;5070407;28;20204;0
2024/01/23 06:29:52;;;;;;;2.80;1.70;;;14.10;90.30;;;;;;5087164;28;20463;-1
2024/01/23 06:32:17;;;;;;;3.00;1.40;;;14.10;90.30;;;;;;5086790;28;20600;0
2024/01/23 06:34:43;;;;;;;4.43;1.60;;;14.10;90.20;;;;;;5070006;28;20173;0
2024/01/23 06:37:09;;;;;;;3.73;1.60;;;14.10;90.20;;;;;;5068341;28;20575;0
2024/01/23 06:39:35;;;;;;;3.43;1.33;;;14.10;90.20;;;;;;5068456;28;20186;0
2024/01/23 06:42:00;;;;;;;4.20;1.53;;;14.10;90.20;;;;;;5086458;28;20189;0
2024/01/23 06:44:26;;;;;;;3.70;1.33;;;14.10;90.20;;;;;;5085487;28;20395;0
2024/01/23 06:46:52;;;;;;;2.93;1.30;;;14.10;90.20;;;;;;5094352;22;20243;-77
2024/01/23 06:49:17;;;;;;;3.77;1.50;;;14.10;90.30;;;;;;5068518;28;20211;-77
2024/01/23 06:51:43;;;;;;;3.67;1.63;;;14.00;90.30;;;;;;5067552;28;20203;-76
2024/01/23 06:54:35;;;;;;;3.97;1.70;;;14.00;90.40;;;;;;5066765;28;20172;-78
2024/01/23 06:57:29;;;;;;;3.20;1.40;;;14.00;90.40;;;;;;5069447;28;20190;-80
2024/01/23 06:59:54;;;;;;;4.97;1.77;;;14.00;90.70;;;;;;5067399;28;20202;-75
2024/01/23 07:02:21;;;;;;;2.27;1.23;;;13.90;90.40;;;;;;5067437;28;20441;-76
2024/01/23 07:04:47;;;;;;;3.87;1.60;;;13.90;90.40;;;;;;5067144;28;20559;-76
2024/01/23 07:07:13;;;;;;;2.80;1.53;;;13.90;90.50;;;;;;5067453;28;20173;-77
2024/01/23 07:09:39;;;;;;;2.80;1.40;;;13.90;90.50;;;;;;5069271;28;20244;-77
2024/01/23 07:12:05;;;;;;;2.93;1.53;;;13.90;90.50;;;;;;5079983;28;20199;-77
2024/01/23 07:14:31;;;;;;;3.23;1.40;;;13.90;90.50;;;;;;5079107;28;20267;-77
2024/01/23 07:16:56;;;;;;;3.17;1.50;;;13.90;90.50;;;;;;5071226;28;20274;-77
2024/01/23 07:19:22;;;;;;;4.03;1.53;;;13.90;90.50;;;;;;5068885;28;20548;-77
2024/01/23 07:21:48;;;;;;;3.23;1.27;;;13.90;90.50;;;;;;5071437;28;20243;-77
2024/01/23 07:24:14;;;;;;;2.60;1.33;;;13.90;90.50;;;;;;5071070;28;20172;-77
2024/01/23 07:26:40;;;;;;;2.90;1.50;;;13.90;90.50;;;;;;5072760;28;20404;-77
2024/01/23 07:29:05;;;;;;;2.90;1.30;;;13.90;90.50;;;;;;5069385;28;20206;-74
2024/01/23 07:31:31;;;;;;;3.93;1.70;;;13.90;90.50;;;;;;5071124;28;20544;-75
2024/01/23 07:34:10;;;;;;;;;;;;;;;;;;;;;
2024/01/23 07:36:39;;;;;;;4.20;1.60;;;13.90;90.50;;;;;;5089784;28;20542;-80
2024/01/23 07:39:29;;;;;;;4.00;1.53;;;13.90;90.60;;;;;;5070876;28;20175;-80
2024/01/23 07:42:27;;;;;;;3.03;1.33;;;13.90;90.60;;;;;;5091430;28;20196;-81
2024/01/23 07:48:53;;;;;;;;;;;;;;;;;;;;;
2024/01/23 07:52:04;;;;;;;3.87;1.53;;;13.90;90.70;;;;;;5022231;28;20214;-80
2024/01/23 07:54:59;;;;;;;3.73;1.60;;;13.90;90.80;;;;;;5074428;28;20177;-81
2024/01/23 07:57:36;;;;;;;4.10;1.50;;;13.90;90.90;;;;;;5078374;28;20164;-80
2024/01/23 08:00:18;;;;;;;3.63;1.57;;;13.90;90.90;;;;;;5075769;28;20175;-81
2024/01/23 08:03:01;;;;;;;3.50;1.70;;;13.90;90.80;;;;;;5073871;28;20290;-80
2024/01/23 08:05:30;;;;;;;3.00;1.50;;;13.90;90.90;;;;;;5075956;28;20184;-80
2024/01/23 08:08:13;;;;;;;3.43;1.50;;;13.90;90.90;;;;;;5068295;28;20284;-80
2024/01/23 08:11:23;;;;;;;;;;;;;;;;;;;;;
2024/01/23 08:14:08;;;;;;;3.10;1.50;;;13.90;90.80;;;;;;5073383;28;20172;-80
2024/01/23 08:16:58;;;;;;;6.93;1.57;;;14.00;90.70;;;;;;5071586;28;20235;-81
2024/01/23 08:19:56;;;;;;;4.50;1.47;;;14.10;90.50;;;;;;5049207;28;20596;-80
2024/01/23 08:23:12;;;;;;;3.87;1.40;;;14.20;90.10;;;;;;5051470;28;20181;-80
2024/01/23 08:25:48;;;;;;;3.10;1.60;;;14.40;88.90;;;;;;5037083;28;20192;-80
2024/01/23 08:28:20;;;;;;;3.50;1.60;;;14.60;87.80;;;;;;5071385;28;20205;-77
2024/01/23 08:30:49;;;;;;;3.97;1.97;;;14.60;87.30;;;;;;5052974;28;20178;-76
2024/01/23 08:33:19;;;;;;;6.30;1.90;;;14.60;87.30;;;;;;5049516;28;20534;-76
2024/01/23 08:35:46;;;;;;;5.57;1.53;;;14.60;87.30;;;;;;5050995;28;20183;-77
2024/01/23 08:38:12;;;;;;;4.63;1.73;;;14.60;87.30;;;;;;5051971;28;20295;-76
2024/01/23 08:40:38;;;;;;;3.67;1.57;;;14.70;87.80;;;;;;5050551;28;20811;-77
2024/01/23 08:43:07;;;;;;;4.90;1.83;;;14.70;86.80;;;;;;5045894;28;20658;-76
2024/01/23 08:45:33;;;;;;;4.93;1.70;;;14.90;86.20;;;;;;5050370;28;20190;-76
2024/01/23 08:47:59;;;;;;;5.40;2.10;;;14.90;85.50;;;;;;5051447;28;20171;-76
2024/01/23 08:50:25;;;;;;;3.63;1.70;;;14.80;85.60;;;;;;5049928;28;20179;-77
2024/01/23 08:52:51;;;;;;;6.73;2.20;;;14.70;86.00;;;;;;5049417;28;20760;-76
2024/01/23 08:55:17;;;;;;;6.63;2.00;;;14.70;86.30;;;;;;5049071;28;20453;-77
2024/01/23 08:57:43;;;;;;;4.40;2.03;;;15.10;85.10;;;;;;5051242;28;20552;-76
2024/01/23 09:00:11;;;;;;;7.70;1.73;;;15.00;84.40;;;;;;5050304;28;20254;-76
2024/01/23 09:02:38;;;;;;;7.07;2.03;;;14.90;85.10;;;;;;5044710;28;20215;-76
2024/01/23 09:05:05;;;;;;;5.47;1.73;;;15.00;85.00;;;;;;5042539;28;20291;-76
2024/01/23 09:07:30;;;;;;;5.07;1.77;;;14.90;84.90;;;;;;5026418;28;20653;-76
2024/01/23 09:09:56;;;;;;;7.63;1.90;;;15.40;83.60;;;;;;5025620;28;20284;-76
2024/01/23 09:12:22;;;;;;;4.10;1.90;;;15.70;81.00;;;;;;5044701;28;20226;-76
2024/01/23 09:14:48;;;;;;;7.70;2.10;;;16.00;78.80;;;;;;5046609;28;20173;-77
2024/01/23 09:17:14;;;;;;;7.00;2.10;;;16.20;77.40;;;;;;5044776;28;20276;-76
2024/01/23 09:19:40;;;;;;;4.23;1.93;;;16.20;76.40;;;;;;5031020;28;20168;-76
2024/01/23 09:22:06;;;;;;;6.30;2.00;;;16.30;75.70;;;;;;5047148;28;20184;-77
2024/01/23 09:24:32;;;;;;;5.27;1.80;;;16.40;75.20;;;;;;5047911;28;20183;-76
2024/01/23 09:27:01;;;;;;;4.43;1.90;;;16.40;74.70;;;;;;5046361;28;20172;-77
2024/01/23 09:29:27;;;;;;;5.77;1.70;;;16.30;74.60;;;;;;5045704;28;20169;-76
2024/01/23 09:31:53;;;;;;;5.63;2.00;;;16.30;74.40;;;;;;5029329;28;20211;-76
2024/01/23 09:34:19;;;;;;;7.50;1.80;;;16.00;75.70;;;;;;5046348;28;20266;-76
2024/01/23 09:36:46;;;;;;;5.40;2.30;;;15.90;76.20;;;;;;5048816;28;20501;-76
2024/01/23 09:39:13;;;;;;;4.80;1.70;;;15.70;76.70;;;;;;5047186;28;20491;-76
2024/01/23 09:41:50;;;;;;;3.90;1.77;;;15.50;78.00;;;;;;5047189;28;20479;-77
2024/01/23 09:44:20;;;;;;;4.20;1.83;;;15.40;78.70;;;;;;5031486;28;20263;-76
2024/01/23 09:46:47;;;;;;;3.97;1.70;;;15.40;79.30;;;;;;5044123;28;20191;-76
2024/01/23 09:49:14;;;;;;;4.67;2.00;;;15.30;79.80;;;;;;5051214;28;20293;-76
2024/01/23 09:51:42;;;;;;;4.03;1.97;;;15.20;80.40;;;;;;5049252;28;20234;-76
2024/01/23 09:54:12;;;;;;;5.50;2.07;;;15.20;80.80;;;;;;5050065;28;20557;-76
2024/01/23 09:56:41;;;;;;;4.03;1.80;;;15.10;81.20;;;;;;5049975;28;20180;-76
2024/01/23 09:59:09;;;;;;;5.27;2.07;;;15.10;81.70;;;;;;5047846;28;20286;-76
2024/01/23 10:01:38;;;;;;;5.10;1.77;;;15.00;82.10;;;;;;5049115;28;20287;-76
2024/01/23 10:04:05;;;;;;;4.10;1.90;;;15.00;82.50;;;;;;5048674;28;20576;-77
2024/01/23 10:06:34;;;;;;;4.53;1.90;;;14.90;82.60;;;;;;5055251;28;20502;-77
2024/01/23 10:09:04;;;;;;;4.83;2.00;;;15.00;82.70;;;;;;5071821;28;20178;-77
2024/01/23 10:11:34;;;;;;;7.17;2.20;;;14.90;82.80;;;;;;5075978;28;20177;-77
2024/01/23 10:14:01;;;;;;;5.20;1.90;;;15.00;83.00;;;;;;5072590;28;20278;-77
2024/01/23 10:16:28;;;;;;;3.67;1.90;;;14.90;83.10;;;;;;5067975;28;20568;-77
2024/01/23 10:18:55;;;;;;;6.73;2.10;;;14.90;83.10;;;;;;5068050;28;20228;-77
2024/01/23 10:21:24;;;;;;;6.77;2.17;;;15.00;83.20;;;;;;5066824;28;20244;-77
2024/01/23 10:23:51;;;;;;;5.57;2.40;;;15.00;83.20;;;;;;5070769;28;20179;-77
2024/01/23 10:26:17;;;;;;;5.67;1.90;;;15.00;83.10;;;;;;5075784;28;20269;-77
2024/01/23 10:28:44;;;;;;;4.43;2.10;;;15.00;83.00;;;;;;5075934;28;20190;-77
2024/01/23 10:31:10;;;;;;;3.90;1.80;;;15.00;83.10;;;;;;5075901;28;20179;-77
2024/01/23 10:33:37;;;;;;;5.07;2.10;;;15.00;83.10;;;;;;5059386;28;20576;-77
2024/01/23 10:36:05;;;;;;;5.37;2.00;;;15.00;83.10;;;;;;5055239;28;20167;-77
2024/01/23 10:38:37;;;;;;;4.13;1.77;;;15.00;83.30;;;;;;5053699;28;20178;-77
2024/01/23 10:41:09;;;;;;;4.13;1.90;;;15.00;83.20;;;;;;5047707;28;20288;-77
2024/01/23 10:43:35;;;;;;;5.13;1.77;;;15.00;83.20;;;;;;5045028;28;20202;-76
2024/01/23 10:46:05;;;;;;;4.17;1.80;;;15.00;83.20;;;;;;5042788;28;20191;-76
2024/01/23 10:48:31;;;;;;;5.20;1.80;;;15.00;83.30;;;;;;5045287;28;20172;-76
2024/01/23 10:51:10;;;;;;;4.33;2.00;;;15.00;83.30;;;;;;5045418;28;20603;-76
2024/01/23 10:53:57;;;;;;;5.50;2.30;;;15.00;83.20;;;;;;5044457;28;20176;-76
2024/01/23 10:56:23;;;;;;;4.73;2.20;;;15.00;83.20;;;;;;5047690;28;20194;-76
2024/01/23 10:59:00;;;;;;;5.07;2.00;;;15.00;83.40;;;;;;5047651;28;20202;-76
2024/01/23 11:01:32;;;;;;;5.57;2.10;;;15.00;84.10;;;;;;5051783;28;20219;-76
2024/01/23 11:03:59;;;;;;;8.30;2.07;;;15.00;84.40;;;;;;5070618;28;20175;-76
2024/01/23 11:06:29;;;;;;;6.17;2.13;;;15.00;84.60;;;;;;5068367;28;20178;-76
2024/01/23 11:09:11;;;;;;;5.87;2.20;;;15.00;84.60;;;;;;5063959;28;20182;-76
2024/01/23 11:11:59;;;;;;;6.30;2.20;;;15.00;84.50;;;;;;5064193;28;20175;-76
2024/01/23 11:14:41;;;;;;;6.10;2.30;;;15.00;84.70;;;;;;5063692;28;20176;-76
2024/01/23 11:17:09;;;;;;;6.17;2.50;;;15.00;84.70;;;;;;5069065;28;20275;-76
2024/01/23 11:19:42;;;;;;;6.73;2.40;;;15.10;84.60;;;;;;5071176;28;20237;-76
2024/01/23 11:22:23;;;;;;;8.03;2.50;;;15.00;84.70;;;;;;5070454;28;20218;-79
2024/01/23 11:24:52;;;;;;;15.97;3.50;;;15.10;85.70;;;;;;5067977;28;20183;-81
2024/01/23 11:27:26;;;;;;;14.87;3.67;;;15.60;88.30;;;;;;5066279;28;20218;-80
2024/01/23 11:29:55;;;;;;;17.10;4.17;;;16.00;87.60;;;;;;5066270;28;20218;-79
2024/01/23 11:33:37;;;;;;;18.13;3.77;;;16.20;84.40;;;;;;5064278;28;20211;-82
2024/01/23 11:36:14;;;;;;;19.13;3.87;;;16.50;85.10;;;;;;4983517;28;20198;-77
2024/01/23 11:38:49;;;;;;;12.17;2.87;;;16.70;86.40;;;;;;5065034;28;20175;-79
2024/01/23 11:41:21;;;;;;;13.20;3.97;;;16.80;86.00;;;;;;5061901;28;20279;-76
2024/01/23 11:44:04;;;;;;;15.60;3.63;;;16.90;84.30;;;;;;5059721;28;20176;-74
2024/01/23 11:46:30;;;;;;;17.17;3.80;;;17.10;83.50;;;;;;5059221;28;20191;-77
2024/01/23 11:48:56;;;;;;;15.67;4.17;;;17.20;82.30;;;;;;5061267;28;20199;-75
2024/01/23 11:51:22;;;;;;;10.53;3.30;;;17.30;80.00;;;;;;5059116;28;20604;-75
2024/01/23 11:53:49;;;;;;;11.07;3.20;;;17.40;81.00;;;;;;5060031;28;20278;-75
2024/01/23 11:56:15;;;;;;;15.53;3.10;;;17.40;80.40;;;;;;5062608;28;20183;-75
2024/01/23 11:58:42;;;;;;;13.60;3.97;;;17.40;80.20;;;;;;5066085;28;20179;-75
2024/01/23 12:01:11;;;;;;;12.20;3.17;;;17.30;78.00;;;;;;5066121;28;20175;-76
2024/01/23 12:03:46;;;;;;;7.13;2.83;;;17.00;78.50;;;;;;5068261;28;20172;-75
2024/01/23 12:06:12;;;;;;;9.47;3.07;;;16.80;78.80;;;;;;5071096;28;20167;-76
2024/01/23 12:08:38;;;;;;;9.50;3.37;;;16.70;79.60;;;;;;5067037;28;20347;-76
2024/01/23 12:11:04;;;;;;;12.73;3.17;;;16.60;80.00;;;;;;5067558;28;20520;-75
2024/01/23 12:13:29;;;;;;;8.13;2.93;;;16.50;80.20;;;;;;5073618;28;20184;-75
2024/01/23 12:15:55;;;;;;;8.93;3.33;;;16.40;80.30;;;;;;5076070;28;20519;-75
2024/01/23 12:18:24;;;;;;;8.57;2.80;;;16.40;80.30;;;;;;5074982;28;20167;-75
2024/01/23 12:20:56;;;;;;;12.53;3.87;;;16.30;80.70;;;;;;5067344;28;20167;-76
2024/01/23 12:23:24;;;;;;;13.13;3.60;;;16.30;80.90;;;;;;5064796;28;20705;-76
2024/01/23 12:25:49;;;;;;;9.33;3.17;;;16.20;81.10;;;;;;5065070;28;20543;-75
2024/01/23 12:28:17;;;;;;;9.07;2.97;;;16.20;81.40;;;;;;5065460;28;20195;-75
2024/01/23 12:30:46;;;;;;;10.90;3.13;;;16.10;81.50;;;;;;5065230;28;20320;-75
2024/01/23 12:33:18;;;;;;;6.63;2.70;;;16.10;82.00;;;;;;5065466;28;20385;-76
2024/01/23 12:35:46;;;;;;;10.33;3.03;;;16.10;82.20;;;;;;5066397;28;20279;-75
2024/01/23 12:38:20;;;;;;;7.63;3.23;;;16.00;82.20;;;;;;5065602;28;20179;-75
2024/01/23 12:40:46;;;;;;;6.67;2.90;;;16.00;82.30;;;;;;5065727;28;20180;-76
2024/01/23 12:43:14;;;;;;;7.97;2.83;;;16.00;82.40;;;;;;5075429;28;20264;-75
2024/01/23 12:45:43;;;;;;;9.00;2.80;;;16.00;82.50;;;;;;5073596;28;20562;-75
2024/01/23 12:48:10;;;;;;;6.50;2.77;;;16.00;82.50;;;;;;5069863;28;20179;-75
2024/01/23 12:50:37;;;;;;;7.60;3.00;;;16.00;82.70;;;;;;5064289;28;20171;-76
2024/01/23 12:53:04;;;;;;;7.80;2.53;;;15.90;82.80;;;;;;5064494;28;20179;-75
2024/01/23 12:55:32;;;;;;;6.70;2.80;;;15.90;82.70;;;;;;5062887;28;20183;-76
2024/01/23 12:57:59;;;;;;;7.13;2.53;;;15.90;83.00;;;;;;5060612;28;20181;-76
2024/01/23 13:00:25;;;;;;;7.07;2.60;;;15.90;83.10;;;;;;5058475;28;20182;-76
2024/01/23 13:02:54;;;;;;;8.60;2.90;;;15.80;83.20;;;;;;5059347;28;20199;-76
2024/01/23 13:05:22;;;;;;;6.63;2.50;;;15.80;83.30;;;;;;5071489;28;20202;-77
2024/01/23 13:07:48;;;;;;;10.30;2.70;;;15.80;83.50;;;;;;5061595;28;20171;-77
2024/01/23 13:10:15;;;;;;;6.07;2.70;;;15.80;83.50;;;;;;5066431;28;20725;-76
2024/01/23 13:12:41;;;;;;;5.93;2.57;;;15.80;83.50;;;;;;5055489;28;20183;-76
2024/01/23 13:15:08;;;;;;;6.77;2.40;;;15.70;83.60;;;;;;5068286;28;20183;-76
2024/01/23 13:17:34;;;;;;;7.87;2.43;;;15.70;83.80;;;;;;5071304;28;20564;-77
2024/01/23 13:20:09;;;;;;;9.40;2.40;;;15.70;84.10;;;;;;5070822;28;20175;-77
2024/01/23 13:22:39;;;;;;;7.03;2.13;;;15.70;84.00;;;;;;5072086;28;20211;-79
2024/01/23 13:25:06;;;;;;;6.33;2.50;;;15.70;84.10;;;;;;5074057;28;20219;-78
2024/01/23 13:27:33;;;;;;;7.37;2.30;;;15.60;84.10;;;;;;5074454;28;20760;-78
2024/01/23 13:29:59;;;;;;;6.67;2.17;;;15.70;84.00;;;;;;5074814;28;20187;-78
2024/01/23 13:32:27;;;;;;;7.00;2.00;;;15.60;84.10;;;;;;5073039;28;20257;-78
2024/01/23 13:34:53;;;;;;;5.13;2.47;;;15.60;84.30;;;;;;5068850;28;20497;-78
2024/01/23 13:37:19;;;;;;;7.37;2.23;;;15.60;84.30;;;;;;5067924;28;20201;-77
2024/01/23 13:39:47;;;;;;;6.20;2.20;;;15.60;84.40;;;;;;5067051;28;20415;-78
2024/01/23 13:42:13;;;;;;;6.40;2.20;;;15.60;84.30;;;;;;5066758;28;20210;-78
2024/01/23 13:44:39;;;;;;;7.57;2.37;;;15.60;84.20;;;;;;5067804;28;20174;-77
2024/01/23 13:47:05;;;;;;;7.43;2.30;;;15.60;84.20;;;;;;5069717;28;20584;-77
2024/01/23 13:49:30;;;;;;;6.43;2.30;;;15.60;84.30;;;;;;5070355;28;20464;-78
2024/01/23 13:51:56;;;;;;;6.80;2.30;;;15.60;84.20;;;;;;5064551;28;20210;-78
2024/01/23 13:54:22;;;;;;;5.07;2.10;;;15.60;84.20;;;;;;5066900;28;20244;-77
2024/01/23 13:56:48;;;;;;;6.17;2.40;;;15.50;84.20;;;;;;5065433;28;20171;-78
2024/01/23 13:59:14;;;;;;;6.33;2.20;;;15.50;84.20;;;;;;5067128;28;20182;-78
2024/01/23 14:01:40;;;;;;;4.70;2.00;;;15.50;84.20;;;;;;5066983;28;20194;-77
2024/01/23 14:04:06;;;;;;;6.37;2.27;;;15.50;84.30;;;;;;5067344;28;20178;-77
2024/01/23 14:06:33;;;;;;;8.13;2.47;;;15.50;84.40;;;;;;5068943;28;20170;-77
2024/01/23 14:08:58;;;;;;;5.30;2.43;;;15.50;84.40;;;;;;5067661;28;20257;-77
2024/01/23 14:11:24;;;;;;;5.60;2.17;;;15.40;84.40;;;;;;5074695;28;20187;-77
2024/01/23 14:13:54;;;;;;;6.67;2.37;;;15.50;84.60;;;;;;5069017;28;20343;-77
2024/01/23 14:16:56;;;;;;;5.77;2.20;;;15.40;84.50;;;;;;5063946;28;20220;-77
2024/01/23 14:19:21;;;;;;;5.53;2.30;;;15.40;84.60;;;;;;5069152;28;20539;-77
2024/01/23 14:21:47;;;;;;;4.63;2.20;;;15.40;84.50;;;;;;5069117;28;20213;-77
2024/01/23 14:24:14;;;;;;;5.63;2.00;;;15.40;84.60;;;;;;5068903;28;20641;-77
2024/01/23 14:26:40;;;;;;;6.30;2.30;;;15.40;84.60;;;;;;5069259;28;20165;-77
2024/01/23 14:29:07;;;;;;;5.63;2.40;;;15.40;84.70;;;;;;5068853;28;20460;-77
2024/01/23 14:31:33;;;;;;;6.23;2.40;;;15.40;84.80;;;;;;5066590;28;20174;-77
2024/01/23 14:33:59;;;;;;;4.80;2.10;;;15.30;84.70;;;;;;5066496;28;20193;-77
2024/01/23 14:36:25;;;;;;;4.80;1.97;;;15.30;84.70;;;;;;5066977;28;20173;-77
2024/01/23 14:38:51;;;;;;;6.53;2.50;;;15.30;84.90;;;;;;5067304;28;20309;-77
2024/01/23 14:41:17;;;;;;;5.50;2.20;;;15.30;84.90;;;;;;5065682;28;20235;-77
2024/01/23 14:43:43;;;;;;;6.03;1.97;;;15.30;84.90;;;;;;5069684;28;20171;-77
2024/01/23 14:46:09;;;;;;;5.27;1.97;;;15.30;84.90;;;;;;5071418;28;20197;-77
2024/01/23 14:48:35;;;;;;;5.73;2.20;;;15.30;85.00;;;;;;5057623;28;20174;-77
2024/01/23 14:51:01;;;;;;;5.43;2.00;;;15.30;85.00;;;;;;5055664;28;20164;-78
2024/01/23 14:53:27;;;;;;;5.60;1.87;;;15.30;85.10;;;;;;5065156;28;20385;-77
2024/01/23 14:55:54;;;;;;;4.87;2.10;;;15.20;85.10;;;;;;5064385;28;20284;-77
2024/01/23 14:58:20;;;;;;;5.73;2.00;;;15.20;85.20;;;;;;5068979;28;20167;-77
2024/01/23 15:00:46;;;;;;;5.27;1.90;;;15.20;85.10;;;;;;5065004;28;20193;-77
2024/01/23 15:03:15;;;;;;;5.87;2.33;;;15.20;85.00;;;;;;5066286;28;20217;-77
2024/01/23 15:05:41;;;;;;;3.60;1.73;;;15.20;85.20;;;;;;5070365;28;20570;-77
2024/01/23 15:08:07;;;;;;;5.20;2.20;;;15.20;85.30;;;;;;5070009;28;20239;-78
2024/01/23 15:10:33;;;;;;;6.70;2.03;;;15.10;85.10;;;;;;5067336;28;20268;-78
2024/01/23 15:12:59;;;;;;;4.17;1.80;;;15.10;85.10;;;;;;5068739;28;20722;-78
2024/01/23 15:15:25;;;;;;;4.83;1.93;;;15.10;85.10;;;;;;5068045;28;20174;-78
2024/01/23 15:17:50;;;;;;;4.43;2.10;;;15.10;85.20;;;;;;5065512;28;20443;-78
2024/01/23 15:20:16;;;;;;;6.77;2.23;;;15.10;85.20;;;;;;5067248;28;20186;-78
2024/01/23 15:22:42;;;;;;;4.13;1.73;;;15.10;85.40;;;;;;5067799;28;20557;-78
2024/01/23 15:25:11;;;;;;;4.83;2.20;;;15.10;85.30;;;;;;5069149;28;20184;-78
2024/01/23 15:27:37;;;;;;;4.40;1.90;;;15.10;85.30;;;;;;5076360;28;20177;-78
2024/01/23 15:30:03;;;;;;;6.03;2.13;;;15.10;85.20;;;;;;5076290;28;20166;-78
2024/01/23 15:32:28;;;;;;;5.77;2.20;;;15.10;85.20;;;;;;5068538;28;20254;-78
2024/01/23 15:34:54;;;;;;;3.60;1.80;;;15.10;85.20;;;;;;5070865;28;20174;-78
2024/01/23 15:37:20;;;;;;;4.23;1.83;;;15.10;85.20;;;;;;5071771;28;20524;-78
2024/01/23 15:39:47;;;;;;;5.37;2.40;;;15.00;85.20;;;;;;5069075;28;20558;-76
2024/01/23 15:42:14;;;;;;;4.67;1.93;;;15.00;85.20;;;;;;5073049;28;20266;-79
2024/01/23 15:44:45;;;;;;;5.23;1.87;;;15.00;85.20;;;;;;5079253;28;20564;-80
2024/01/23 15:47:11;;;;;;;4.27;1.93;;;15.00;85.20;;;;;;5078660;28;20495;-76
2024/01/23 15:49:37;;;;;;;4.43;1.97;;;15.00;85.20;;;;;;5070774;28;20448;-77
2024/01/23 15:52:03;;;;;;;4.23;1.83;;;15.00;85.20;;;;;;5068844;28;20185;-77
2024/01/23 15:54:30;;;;;;;6.77;2.07;;;15.00;85.30;;;;;;5070292;28;20406;-77
2024/01/23 15:56:55;;;;;;;4.63;1.97;;;15.00;85.30;;;;;;5069877;28;20277;-79
2024/01/23 15:59:21;;;;;;;4.67;1.97;;;15.00;85.40;;;;;;5070190;28;20245;-78
2024/01/23 16:01:47;;;;;;;6.07;2.10;;;15.00;85.40;;;;;;5069858;28;20206;-78
2024/01/23 16:04:16;;;;;;;6.07;2.10;;;15.00;85.50;;;;;;5070605;28;20166;-79
2024/01/23 16:07:02;;;;;;;5.90;1.90;;;14.90;85.50;;;;;;5071219;28;20433;-79
2024/01/23 16:09:27;;;;;;;3.80;1.80;;;14.90;85.60;;;;;;5071279;28;20200;-80
2024/01/23 16:11:53;;;;;;;4.17;2.10;;;14.90;85.70;;;;;;5073301;28;20232;-79
2024/01/23 16:14:19;;;;;;;4.13;1.90;;;14.90;85.70;;;;;;5071739;28;20435;-77
2024/01/23 16:16:45;;;;;;;4.60;1.77;;;14.90;86.00;;;;;;5071752;28;20170;-77
2024/01/23 16:19:12;;;;;;;4.70;2.03;;;14.90;86.10;;;;;;5071064;28;20232;-77
2024/01/23 16:21:38;;;;;;;3.80;1.90;;;14.90;86.10;;;;;;5071641;28;20469;-76
2024/01/23 16:24:05;;;;;;;4.47;1.80;;;14.90;86.30;;;;;;5070153;28;20181;-78
2024/01/23 16:26:31;;;;;;;4.90;1.93;;;14.80;86.10;;;;;;5071838;28;20170;-78
2024/01/23 16:28:57;;;;;;;5.53;2.20;;;14.90;86.20;;;;;;5075019;28;20193;-80
2024/01/23 16:31:24;;;;;;;3.53;2.13;;;14.80;86.00;;;;;;5073092;28;20169;-78
2024/01/23 16:33:50;;;;;;;4.07;1.70;;;14.80;86.00;;;;;;5072420;28;20197;-77
2024/01/23 16:36:16;;;;;;;3.83;1.90;;;14.80;86.10;;;;;;5070632;28;20388;-77
2024/01/23 16:38:41;;;;;;;5.00;1.97;;;14.80;86.10;;;;;;5068517;28;20170;-77
2024/01/23 16:41:08;;;;;;;5.33;2.00;;;14.70;86.10;;;;;;5065227;28;20179;-77
2024/01/23 16:43:35;;;;;;;4.03;2.13;;;14.80;86.10;;;;;;5056597;28;20205;-77
2024/01/23 16:46:03;;;;;;;3.73;1.70;;;14.70;86.30;;;;;;5058259;28;20285;-77
2024/01/23 16:48:29;;;;;;;5.27;2.00;;;14.70;86.60;;;;;;5050390;28;20182;-77
2024/01/23 16:50:55;;;;;;;5.13;1.97;;;14.70;86.60;;;;;;5073224;28;20174;-77
2024/01/23 16:53:21;;;;;;;3.83;2.10;;;14.70;86.70;;;;;;5067524;28;20174;-77
2024/01/23 16:55:47;;;;;;;4.90;1.80;;;14.70;86.90;;;;;;5065573;28;20168;-77
2024/01/23 16:58:13;;;;;;;3.77;2.10;;;14.70;87.10;;;;;;5066122;28;20207;-77
2024/01/23 17:00:39;;;;;;;4.53;2.00;;;14.70;87.30;;;;;;5068683;28;20172;-77
2024/01/23 17:03:05;;;;;;;7.37;2.20;;;14.70;87.40;;;;;;5069003;28;20250;-77
2024/01/23 17:05:31;;;;;;;6.40;2.00;;;14.70;87.40;;;;;;5070499;28;20358;-77
2024/01/23 17:07:56;;;;;;;5.00;2.13;;;14.70;87.60;;;;;;5071699;28;20229;-78
2024/01/23 17:10:22;;;;;;;3.83;1.73;;;14.70;87.60;;;;;;5070708;28;20184;-77
2024/01/23 17:12:48;;;;;;;6.33;2.40;;;14.60;87.70;;;;;;5071032;28;20277;-77
2024/01/23 17:15:14;;;;;;;5.03;2.23;;;14.70;88.00;;;;;;5071581;28;20173;-77
2024/01/23 17:17:41;;;;;;;5.57;2.40;;;14.60;87.90;;;;;;5070174;28;20213;-77
2024/01/23 17:20:07;;;;;;;5.73;2.17;;;14.60;88.20;;;;;;5068965;28;20503;-78
2024/01/23 17:22:33;;;;;;;5.03;1.93;;;14.60;88.10;;;;;;5067886;28;20210;-77
2024/01/23 17:24:59;;;;;;;6.93;2.30;;;14.60;88.10;;;;;;5064647;28;20194;-77
2024/01/23 17:27:27;;;;;;;5.10;1.80;;;14.60;88.00;;;;;;5086245;28;20681;-77
2024/01/23 17:29:52;;;;;;;5.73;2.33;;;14.60;88.00;;;;;;5069188;28;20174;-77
2024/01/23 17:32:18;;;;;;;5.67;2.33;;;14.60;87.80;;;;;;5069075;28;20234;-77
2024/01/23 17:34:44;;;;;;;4.63;2.20;;;14.60;87.90;;;;;;5069710;28;20522;-77
2024/01/23 17:37:11;;;;;;;6.87;2.30;;;14.60;87.90;;;;;;5071231;28;20185;-77
2024/01/23 17:39:37;;;;;;;3.47;2.00;;;14.60;88.00;;;;;;5069849;28;20179;-77
2024/01/23 17:42:03;;;;;;;5.53;2.20;;;14.60;88.00;;;;;;5069451;28;20454;-77
2024/01/23 17:44:29;;;;;;;5.23;2.30;;;14.60;88.10;;;;;;5067563;28;20414;-77
2024/01/23 17:46:57;;;;;;;4.80;1.90;;;14.50;88.10;;;;;;5068991;28;20180;-75
2024/01/23 17:49:32;;;;;;;3.47;1.97;;;14.60;88.10;;;;;;5071037;28;20190;-79
2024/01/23 17:51:58;;;;;;;5.00;2.30;;;14.60;88.30;;;;;;5072222;28;20570;-79
2024/01/23 17:54:42;;;;;;;4.60;1.87;;;14.50;88.20;;;;;;5071870;28;20903;-80
2024/01/23 17:57:09;;;;;;;4.60;2.30;;;14.50;88.20;;;;;;5086541;28;20181;-77
2024/01/23 17:59:35;;;;;;;7.53;2.33;;;14.50;88.20;;;;;;5069056;28;20182;-76
2024/01/23 18:02:01;;;;;;;5.20;2.63;;;14.50;88.30;;;;;;5068116;28;20651;-78
2024/01/23 18:04:36;;;;;;;3.80;2.00;;;14.50;88.30;;;;;;5068308;28;20567;-78
2024/01/23 18:07:02;;;;;;;4.30;2.00;;;14.50;88.40;;;;;;5069362;28;20167;-77
2024/01/23 18:09:28;;;;;;;5.80;1.93;;;14.50;88.40;;;;;;5068340;28;20167;-77
2024/01/23 18:15:17;;;;;;;6.13;2.23;;;14.50;88.40;;;;;;5087617;28;20233;-77
2024/01/23 18:17:43;;;;;;;4.60;1.83;;;14.50;88.30;;;;;;5069829;28;20173;-77
2024/01/23 18:20:10;;;;;;;4.80;2.13;;;14.40;88.30;;;;;;5068491;28;20176;-77
2024/01/23 18:22:35;;;;;;;4.57;1.87;;;14.50;88.40;;;;;;5068114;28;20215;-77
2024/01/23 18:25:01;;;;;;;4.83;2.00;;;14.50;88.30;;;;;;5074192;28;20266;-79
2024/01/23 18:27:31;;;;;;;4.77;1.83;;;14.40;88.40;;;;;;5076065;28;20227;-78
2024/01/23 18:29:57;;;;;;;4.67;2.30;;;14.40;88.70;;;;;;5077380;28;20188;-78
2024/01/23 18:32:23;;;;;;;3.53;1.90;;;14.50;88.40;;;;;;5069938;28;20209;-78
2024/01/23 18:34:50;;;;;;;4.43;1.83;;;14.40;88.30;;;;;;5052375;28;20213;-77
2024/01/23 18:37:17;;;;;;;4.80;2.00;;;14.40;88.30;;;;;;5067949;28;20181;-76
2024/01/23 18:39:43;;;;;;;3.77;2.20;;;14.40;88.20;;;;;;5068182;28;20173;-76
2024/01/23 18:42:09;;;;;;;5.97;2.17;;;14.40;88.20;;;;;;5070147;28;20209;-77
2024/01/23 18:44:38;;;;;;;5.27;2.03;;;14.40;88.30;;;;;;5069470;28;20234;-80
2024/01/23 18:47:05;;;;;;;5.57;1.90;;;14.40;88.20;;;;;;5066695;28;20185;-80
2024/01/23 18:49:31;;;;;;;3.73;1.87;;;14.40;88.30;;;;;;5070642;28;20525;-79
2024/01/23 18:51:57;;;;;;;4.23;1.83;;;14.40;88.50;;;;;;5071667;28;20355;-79
2024/01/23 18:54:23;;;;;;;4.17;2.17;;;14.40;88.30;;;;;;5074811;28;20376;-78
2024/01/23 18:56:48;;;;;;;3.67;1.77;;;14.40;88.30;;;;;;5072721;28;20173;-78
2024/01/23 18:59:14;;;;;;;3.60;1.90;;;14.40;88.30;;;;;;5072683;28;20172;-77
2024/01/23 19:01:40;;;;;;;5.03;1.83;;;14.40;88.50;;;;;;5090358;28;20304;-77
2024/01/23 19:04:07;;;;;;;3.23;1.70;;;14.40;88.40;;;;;;5068975;28;20177;-77
2024/01/23 19:06:33;;;;;;;3.43;1.70;;;14.30;88.30;;;;;;5070782;28;20173;-78
2024/01/23 19:08:59;;;;;;;3.43;1.70;;;14.40;88.50;;;;;;5068836;28;20202;-77